Time;durP1;ratioP1;P1;durP2;ratioP2;P2;SDS_P1;SDS_P2;PMS_P1;PMS_P2;Temp;Humidity;BMP_temperature;BMP_pressure;BME280_temperature;BME280_humidity;BME280_pressure;Samples;Min_cycle;Max_cycle;Signal;HPM_P1;HPM_P2
2022/05/06 00:01:27;;;;;;;24.65;12.25;;;;;;;;;;5112889;28;20027;-92
2022/05/06 00:03:52;;;;;;;28.25;12.85;;;;;;;;;;5099837;28;20027;-91
2022/05/06 00:06:18;;;;;;;23.75;11.73;;;;;;;;;;5092464;28;20489;-92
2022/05/06 00:08:43;;;;;;;31.40;12.77;;;;;;;;;;5092366;28;20087;-91
2022/05/06 00:11:08;;;;;;;23.63;12.40;;;;;;;;;;5092389;28;20023;-91
2022/05/06 00:13:35;;;;;;;26.40;12.63;;;;;;;;;;5092446;28;20020;-91
2022/05/06 00:16:00;;;;;;;24.27;12.73;;;;;;;;;;5092245;28;20080;-92
2022/05/06 00:18:26;;;;;;;28.30;13.02;;;;;;;;;;5092380;28;20012;-91
2022/05/06 00:20:51;;;;;;;26.40;12.95;;;;;;;;;;5091449;28;20016;-91
2022/05/06 00:23:16;;;;;;;24.70;12.90;;;;;;;;;;5092164;28;20020;-91
2022/05/06 00:25:41;;;;;;;25.33;13.38;;;;;;;;;;5093274;28;20513;-91
2022/05/06 00:28:06;;;;;;;28.00;13.10;;;;;;;;;;5092282;28;20020;-91
2022/05/06 00:30:32;;;;;;;25.13;13.10;;;;;;;;;;5092640;28;20055;-92
2022/05/06 00:32:58;;;;;;;29.05;15.00;;;;;;;;;;5091810;28;20051;-92
2022/05/06 00:35:23;;;;;;;37.63;16.95;;;;;;;;;;5091875;28;20069;-92
2022/05/06 00:37:48;;;;;;;44.08;17.08;;;;;;;;;;5093273;28;20020;-92
2022/05/06 00:40:13;;;;;;;35.35;15.95;;;;;;;;;;5092674;28;20054;-91
2022/05/06 00:42:39;;;;;;;39.50;16.63;;;;;;;;;;5092035;28;20023;-92
2022/05/06 00:45:05;;;;;;;44.70;17.60;;;;;;;;;;5091679;28;20024;-92
2022/05/06 00:47:33;;;;;;;36.13;18.00;;;;;;;;;;5091926;28;20058;-91
2022/05/06 00:49:59;;;;;;;45.92;20.08;;;;;;;;;;5091672;28;20028;-91
2022/05/06 00:52:24;;;;;;;42.90;20.00;;;;;;;;;;5093094;28;20383;-92
2022/05/06 00:54:51;;;;;;;44.88;21.15;;;;;;;;;;5091983;28;20054;-92
2022/05/06 00:57:17;;;;;;;48.45;22.35;;;;;;;;;;5092901;28;20024;-91
2022/05/06 01:02:26;;;;;;;45.97;21.88;;;;;;;;;;5093163;28;20096;-92
2022/05/06 01:04:52;;;;;;;61.67;23.25;;;;;;;;;;5092038;28;20039;-91
2022/05/06 01:07:17;;;;;;;54.28;24.02;;;;;;;;;;5091937;28;20036;-92
2022/05/06 01:09:42;;;;;;;53.70;22.83;;;;;;;;;;5092630;28;20016;-91
2022/05/06 01:12:08;;;;;;;49.17;23.42;;;;;;;;;;5091789;28;20077;-92
2022/05/06 01:14:34;;;;;;;92.38;25.83;;;;;;;;;;5091886;28;20031;-91
2022/05/06 01:16:59;;;;;;;53.15;23.35;;;;;;;;;;5091962;28;20020;-92
2022/05/06 01:19:24;;;;;;;54.53;23.88;;;;;;;;;;5091467;28;20070;-91
2022/05/06 01:21:53;;;;;;;57.25;24.20;;;;;;;;;;5092576;28;20008;-91
2022/05/06 01:24:19;;;;;;;56.63;24.73;;;;;;;;;;5091655;28;20111;-92
2022/05/06 01:26:59;;;;;;;60.33;25.33;;;;;;;;;;5091778;28;20056;-92
2022/05/06 01:29:24;;;;;;;59.30;25.27;;;;;;;;;;5091173;28;20024;-91
2022/05/06 01:31:53;;;;;;;58.40;24.25;;;;;;;;;;5091297;28;20035;-91
2022/05/06 01:34:19;;;;;;;61.67;26.77;;;;;;;;;;5095292;28;20016;-91
2022/05/06 01:36:46;;;;;;;55.25;24.65;;;;;;;;;;5095092;28;20440;-91
2022/05/06 01:39:15;;;;;;;54.05;23.67;;;;;;;;;;5095106;28;20036;-91
2022/05/06 01:41:43;;;;;;;60.17;25.80;;;;;;;;;;5095088;28;20058;-91
2022/05/06 01:44:09;;;;;;;69.57;26.10;;;;;;;;;;5094912;28;20038;-91
2022/05/06 01:46:35;;;;;;;59.30;26.08;;;;;;;;;;5095202;28;20080;-91
2022/05/06 01:49:02;;;;;;;60.83;25.17;;;;;;;;;;5095770;28;20024;-92
2022/05/06 01:51:27;;;;;;;62.17;25.20;;;;;;;;;;5095006;28;20454;-91
2022/05/06 01:53:52;;;;;;;59.70;25.20;;;;;;;;;;5094963;28;20056;-91
2022/05/06 01:56:19;;;;;;;64.90;25.63;;;;;;;;;;5094922;28;20455;-91
2022/05/06 01:58:44;;;;;;;61.85;25.80;;;;;;;;;;5094420;28;20055;-92
2022/05/06 02:01:11;;;;;;;73.95;25.00;;;;;;;;;;5094467;28;20043;-92
2022/05/06 02:06:20;;;;;;;60.25;26.00;;;;;;;;;;5095885;28;20033;-92
2022/05/06 02:08:45;;;;;;;58.75;25.40;;;;;;;;;;5094654;28;20028;-91
2022/05/06 02:11:11;;;;;;;69.80;26.40;;;;;;;;;;5095676;28;20039;-91
2022/05/06 02:13:37;;;;;;;68.30;27.05;;;;;;;;;;5096067;28;20024;-91
2022/05/06 02:16:03;;;;;;;62.88;26.48;;;;;;;;;;5095525;28;20020;-91
2022/05/06 02:18:28;;;;;;;62.13;26.80;;;;;;;;;;5094516;28;20030;-91
2022/05/06 02:20:57;;;;;;;59.58;24.10;;;;;;;;;;5094071;28;20023;-91
2022/05/06 02:23:22;;;;;;;62.80;26.27;;;;;;;;;;5094092;28;20095;-91
2022/05/06 02:25:48;;;;;;;59.38;25.65;;;;;;;;;;5094208;28;20022;-92
2022/05/06 02:28:14;;;;;;;62.85;26.50;;;;;;;;;;5094090;28;20019;-92
2022/05/06 02:33:24;;;;;;;57.97;25.73;;;;;;;;;;5095282;28;20119;-91
2022/05/06 02:35:49;;;;;;;69.43;26.23;;;;;;;;;;5094079;28;20107;-91
2022/05/06 02:38:14;;;;;;;66.85;26.42;;;;;;;;;;5094702;28;20012;-90
2022/05/06 02:40:40;;;;;;;61.88;25.80;;;;;;;;;;5093791;28;20019;-91
2022/05/06 02:43:06;;;;;;;59.97;25.60;;;;;;;;;;5094286;28;20024;-91
2022/05/06 02:45:32;;;;;;;60.50;24.50;;;;;;;;;;5095411;28;20024;-91
2022/05/06 02:48:00;;;;;;;57.05;24.02;;;;;;;;;;5094102;28;20132;-91
2022/05/06 02:50:25;;;;;;;61.13;24.58;;;;;;;;;;5093497;28;20103;-91
2022/05/06 02:52:51;;;;;;;59.90;26.13;;;;;;;;;;5093613;28;20035;-91
2022/05/06 02:55:16;;;;;;;69.38;26.58;;;;;;;;;;5093460;28;20026;-91
2022/05/06 02:57:41;;;;;;;68.38;25.50;;;;;;;;;;5093879;28;20023;-91
2022/05/06 03:00:07;;;;;;;65.43;26.08;;;;;;;;;;5093718;28;20016;-91
2022/05/06 03:02:32;;;;;;;77.05;26.20;;;;;;;;;;5094746;28;20028;-91
2022/05/06 03:04:57;;;;;;;58.38;24.63;;;;;;;;;;5093347;28;20119;-91
2022/05/06 03:07:23;;;;;;;63.38;26.52;;;;;;;;;;5094465;28;20020;-91
2022/05/06 03:09:48;;;;;;;64.75;26.10;;;;;;;;;;5093227;28;20677;-92
2022/05/06 03:12:16;;;;;;;66.60;26.38;;;;;;;;;;5093715;28;20069;-91
2022/05/06 03:14:41;;;;;;;70.97;27.38;;;;;;;;;;5093394;28;20024;-91
2022/05/06 03:17:06;;;;;;;63.78;26.67;;;;;;;;;;5093225;28;20019;-91
2022/05/06 03:19:32;;;;;;;66.88;26.77;;;;;;;;;;5093071;28;20024;-91
2022/05/06 03:21:57;;;;;;;64.07;25.77;;;;;;;;;;5093669;28;20020;-91
2022/05/06 03:24:23;;;;;;;64.07;26.27;;;;;;;;;;5094494;28;20487;-91
2022/05/06 03:26:48;;;;;;;59.60;25.17;;;;;;;;;;5093100;28;20020;-91
2022/05/06 03:29:13;;;;;;;76.63;26.92;;;;;;;;;;5092667;28;20044;-91
2022/05/06 03:31:38;;;;;;;67.43;26.40;;;;;;;;;;5093198;28;20032;-91
2022/05/06 03:34:05;;;;;;;63.47;25.60;;;;;;;;;;5093003;28;20451;-91
2022/05/06 03:36:30;;;;;;;60.45;25.50;;;;;;;;;;5093057;28;20081;-91
2022/05/06 03:38:55;;;;;;;63.50;26.30;;;;;;;;;;5092436;28;20391;-91
2022/05/06 03:41:21;;;;;;;65.30;25.60;;;;;;;;;;5093696;28;20012;-91
2022/05/06 03:43:46;;;;;;;62.45;23.85;;;;;;;;;;5092487;28;20431;-91
2022/05/06 03:46:12;;;;;;;55.90;24.23;;;;;;;;;;5092893;28;20062;-91
2022/05/06 03:48:37;;;;;;;84.25;24.25;;;;;;;;;;5092429;28;20053;-91
2022/05/06 03:51:20;;;;;;;63.47;23.38;;;;;;;;;;5092625;28;20364;-91
2022/05/06 03:53:46;;;;;;;63.00;23.00;;;;;;;;;;5093653;28;20027;-91
2022/05/06 03:56:11;;;;;;;65.32;24.48;;;;;;;;;;5092099;28;20580;-91
2022/05/06 03:58:37;;;;;;;63.83;23.48;;;;;;;;;;5092458;28;20028;-91
2022/05/06 04:01:07;;;;;;;58.53;22.90;;;;;;;;;;5092593;28;20047;-91
2022/05/06 04:03:32;;;;;;;60.10;22.20;;;;;;;;;;5092194;28;20024;-90
2022/05/06 04:05:58;;;;;;;66.10;23.60;;;;;;;;;;5092294;28;20022;-91
2022/05/06 04:08:23;;;;;;;64.97;23.10;;;;;;;;;;5092024;28;20505;-91
2022/05/06 04:10:48;;;;;;;68.72;23.40;;;;;;;;;;5092373;28;20024;-91
2022/05/06 04:13:14;;;;;;;53.13;22.00;;;;;;;;;;5092495;28;20356;-90
2022/05/06 04:15:39;;;;;;;61.40;22.90;;;;;;;;;;5091849;28;20046;-90
2022/05/06 04:18:04;;;;;;;55.05;22.23;;;;;;;;;;5091791;28;20043;-91
2022/05/06 04:23:29;;;;;;;68.75;22.73;;;;;;;;;;5093858;28;20031;-91
2022/05/06 04:25:55;;;;;;;62.08;23.17;;;;;;;;;;5092756;28;20016;-90
2022/05/06 04:28:20;;;;;;;67.50;23.10;;;;;;;;;;5091799;28;20020;-91
2022/05/06 04:30:46;;;;;;;59.58;22.45;;;;;;;;;;5092059;28;20455;-90
2022/05/06 04:33:11;;;;;;;54.55;20.27;;;;;;;;;;5091732;28;20017;-91
2022/05/06 04:35:36;;;;;;;46.47;19.20;;;;;;;;;;5091771;28;20081;-91
2022/05/06 04:38:01;;;;;;;49.22;19.80;;;;;;;;;;5091766;28;20386;-92
2022/05/06 04:40:27;;;;;;;45.00;19.48;;;;;;;;;;5091740;28;20020;-91
2022/05/06 04:42:52;;;;;;;42.85;18.77;;;;;;;;;;5091968;28;20463;-91
2022/05/06 04:45:17;;;;;;;48.28;18.92;;;;;;;;;;5091433;28;20485;-90
2022/05/06 04:47:42;;;;;;;49.65;17.80;;;;;;;;;;5091629;28;20531;-91
2022/05/06 04:50:08;;;;;;;45.72;19.67;;;;;;;;;;5091380;28;20016;-91
2022/05/06 04:52:33;;;;;;;46.20;18.33;;;;;;;;;;5091609;28;20075;-91
2022/05/06 04:54:58;;;;;;;45.65;19.02;;;;;;;;;;5091328;28;20024;-90
2022/05/06 04:57:23;;;;;;;45.00;19.33;;;;;;;;;;5091240;28;20020;-91
2022/05/06 04:59:49;;;;;;;44.60;18.17;;;;;;;;;;5091442;28;20020;-91
2022/05/06 05:02:15;;;;;;;44.08;18.60;;;;;;;;;;5091641;28;20023;-91
2022/05/06 05:04:41;;;;;;;50.33;19.40;;;;;;;;;;5092847;28;20111;-91
2022/05/06 05:07:07;;;;;;;49.78;19.92;;;;;;;;;;5093918;28;20383;-91
2022/05/06 05:09:32;;;;;;;51.97;20.23;;;;;;;;;;5095407;28;20039;-90
2022/05/06 05:11:57;;;;;;;54.00;20.17;;;;;;;;;;5095664;28;20020;-91
2022/05/06 05:14:23;;;;;;;46.50;18.48;;;;;;;;;;5095558;28;20024;-91
2022/05/06 05:16:50;;;;;;;48.88;19.70;;;;;;;;;;5095788;28;20183;-91
2022/05/06 05:19:15;;;;;;;52.63;20.67;;;;;;;;;;5095159;28;20020;-91
2022/05/06 05:21:40;;;;;;;49.60;20.90;;;;;;;;;;5095667;28;20107;-91
2022/05/06 05:24:06;;;;;;;59.50;20.02;;;;;;;;;;5095196;28;20020;-91
2022/05/06 05:26:31;;;;;;;50.58;19.92;;;;;;;;;;5096490;28;20020;-91
2022/05/06 05:28:56;;;;;;;56.03;19.90;;;;;;;;;;5094989;28;20379;-91
2022/05/06 05:31:21;;;;;;;55.05;20.10;;;;;;;;;;5094888;28;20016;-90
2022/05/06 05:33:47;;;;;;;50.40;21.63;;;;;;;;;;5096212;28;20024;-91
2022/05/06 05:36:13;;;;;;;46.55;18.80;;;;;;;;;;5095538;28;20077;-91
2022/05/06 05:38:38;;;;;;;42.00;18.30;;;;;;;;;;5095154;28;20474;-91
2022/05/06 05:41:04;;;;;;;50.20;19.95;;;;;;;;;;5096008;28;20043;-91
2022/05/06 05:48:57;;;;;;;53.05;20.90;;;;;;;;;;5097499;28;20062;-89
2022/05/06 05:51:22;;;;;;;52.70;20.75;;;;;;;;;;5096933;28;20020;-89
2022/05/06 05:53:47;;;;;;;64.10;22.65;;;;;;;;;;5095960;28;20127;-89
2022/05/06 05:56:12;;;;;;;57.17;22.15;;;;;;;;;;5096027;28;20016;-88
2022/05/06 05:58:38;;;;;;;71.00;19.52;;;;;;;;;;5097201;28;20533;-89
2022/05/06 06:01:03;;;;;;;57.63;22.90;;;;;;;;;;5101554;28;20024;-89
2022/05/06 06:03:28;;;;;;;55.47;23.00;;;;;;;;;;5115271;28;20028;-89
2022/05/06 06:05:54;;;;;;;57.72;22.88;;;;;;;;;;5116076;28;20471;-88
2022/05/06 06:08:19;;;;;;;61.67;22.48;;;;;;;;;;5115865;28;20030;-89
2022/05/06 06:10:44;;;;;;;60.97;22.30;;;;;;;;;;5115924;28;20030;-89
2022/05/06 06:13:09;;;;;;;49.15;21.52;;;;;;;;;;5115807;28;20016;-89
2022/05/06 06:15:34;;;;;;;58.50;21.80;;;;;;;;;;5115840;28;20023;-89
2022/05/06 06:18:00;;;;;;;54.38;22.83;;;;;;;;;;5116488;28;20024;-89
2022/05/06 06:20:26;;;;;;;53.05;20.35;;;;;;;;;;5100038;28;20439;-89
2022/05/06 06:22:51;;;;;;;58.28;22.27;;;;;;;;;;5096658;28;20028;-89
2022/05/06 06:25:16;;;;;;;63.40;20.73;;;;;;;;;;5096654;28;20020;-89
2022/05/06 06:27:43;;;;;;;72.07;22.52;;;;;;;;;;5112471;28;20055;-89
2022/05/06 06:30:09;;;;;;;61.35;20.88;;;;;;;;;;5115861;28;20019;-89
2022/05/06 06:32:35;;;;;;;56.85;22.00;;;;;;;;;;5116944;27;20114;-89
2022/05/06 06:35:00;;;;;;;64.32;23.48;;;;;;;;;;5115023;28;20020;-89
2022/05/06 06:37:27;;;;;;;66.50;23.38;;;;;;;;;;5116346;28;20016;-89
2022/05/06 06:39:52;;;;;;;70.95;23.77;;;;;;;;;;5115444;28;20450;-88
2022/05/06 06:42:17;;;;;;;65.00;23.08;;;;;;;;;;5115603;28;20031;-89
2022/05/06 06:44:43;;;;;;;57.63;22.92;;;;;;;;;;5115536;28;20032;-89
2022/05/06 06:47:11;;;;;;;54.38;21.35;;;;;;;;;;5116638;28;20020;-90
2022/05/06 06:49:36;;;;;;;51.83;20.60;;;;;;;;;;5116898;28;20027;-90
2022/05/06 06:52:02;;;;;;;49.13;20.58;;;;;;;;;;5115484;28;20015;-90
2022/05/06 06:54:28;;;;;;;48.53;21.08;;;;;;;;;;5116450;28;20374;-89
2022/05/06 06:56:53;;;;;;;57.55;20.98;;;;;;;;;;5116296;28;20095;-89
2022/05/06 06:59:18;;;;;;;56.33;23.05;;;;;;;;;;5116424;28;20108;-89
2022/05/06 07:01:43;;;;;;;56.72;23.38;;;;;;;;;;5115110;28;20020;-89
2022/05/06 07:04:09;;;;;;;58.45;23.85;;;;;;;;;;5115373;28;20024;-89
2022/05/06 07:12:02;;;;;;;53.63;23.25;;;;;;;;;;5116863;28;20066;-89
2022/05/06 07:14:29;;;;;;;61.58;23.40;;;;;;;;;;5116132;28;20016;-89
2022/05/06 07:16:54;;;;;;;57.15;23.77;;;;;;;;;;5114966;28;20023;-89
2022/05/06 07:19:20;;;;;;;61.33;25.00;;;;;;;;;;5114907;28;20083;-89
2022/05/06 07:21:45;;;;;;;66.93;26.33;;;;;;;;;;5114814;28;20032;-90
2022/05/06 07:24:10;;;;;;;53.15;22.10;;;;;;;;;;5114740;28;20015;-89
2022/05/06 07:26:35;;;;;;;53.60;23.48;;;;;;;;;;5114902;28;20382;-89
2022/05/06 07:29:00;;;;;;;60.33;23.20;;;;;;;;;;5115954;28;20100;-89
2022/05/06 07:31:26;;;;;;;60.50;25.52;;;;;;;;;;5114662;28;20081;-90
2022/05/06 07:33:51;;;;;;;74.00;24.75;;;;;;;;;;5114674;28;20369;-90
2022/05/06 07:36:16;;;;;;;57.30;25.17;;;;;;;;;;5115903;28;20045;-90
2022/05/06 07:38:41;;;;;;;59.92;25.30;;;;;;;;;;5114700;28;20024;-89
2022/05/06 07:41:07;;;;;;;62.60;24.67;;;;;;;;;;5114524;28;20022;-90
2022/05/06 07:43:32;;;;;;;63.10;25.67;;;;;;;;;;5115586;28;20024;-89
2022/05/06 07:45:58;;;;;;;61.35;25.92;;;;;;;;;;5114452;28;20024;-89
2022/05/06 07:48:23;;;;;;;57.40;24.25;;;;;;;;;;5114540;28;20394;-89
2022/05/06 07:50:48;;;;;;;55.47;25.52;;;;;;;;;;5115543;28;20053;-89
2022/05/06 07:53:15;;;;;;;60.90;25.83;;;;;;;;;;5114181;28;20019;-90
2022/05/06 07:55:40;;;;;;;57.03;25.15;;;;;;;;;;5114141;28;20022;-89
2022/05/06 07:58:05;;;;;;;53.15;23.40;;;;;;;;;;5115204;28;20012;-88
2022/05/06 08:00:31;;;;;;;57.25;24.30;;;;;;;;;;5113986;28;20462;-90
2022/05/06 08:05:40;;;;;;;50.42;22.80;;;;;;;;;;5115749;28;20030;-89
2022/05/06 08:08:06;;;;;;;52.25;23.65;;;;;;;;;;5114044;28;20023;-89
2022/05/06 08:10:31;;;;;;;49.15;23.73;;;;;;;;;;5114618;28;20020;-89
2022/05/06 08:12:56;;;;;;;51.92;22.58;;;;;;;;;;5113810;28;20470;-89
2022/05/06 08:15:21;;;;;;;49.60;21.85;;;;;;;;;;5113770;28;20031;-90
2022/05/06 08:17:47;;;;;;;48.80;21.52;;;;;;;;;;5115157;28;20026;-90
2022/05/06 08:20:12;;;;;;;49.83;21.17;;;;;;;;;;5113814;28;20106;-89
2022/05/06 08:22:37;;;;;;;47.03;21.33;;;;;;;;;;5113953;28;20539;-89
2022/05/06 08:25:04;;;;;;;56.30;24.65;;;;;;;;;;5113661;28;20024;-90
2022/05/06 08:27:34;;;;;;;55.88;23.33;;;;;;;;;;5113839;28;20390;-89
2022/05/06 08:29:59;;;;;;;59.25;25.60;;;;;;;;;;5113633;28;20072;-89
2022/05/06 08:32:25;;;;;;;58.42;24.38;;;;;;;;;;5113667;28;20545;-89
2022/05/06 08:34:50;;;;;;;54.60;23.95;;;;;;;;;;5113474;28;20030;-89
2022/05/06 08:37:15;;;;;;;60.25;24.70;;;;;;;;;;5113540;28;20020;-89
2022/05/06 08:39:40;;;;;;;67.18;25.85;;;;;;;;;;5113512;28;20055;-90
2022/05/06 08:42:08;;;;;;;60.13;24.98;;;;;;;;;;5113157;28;20047;-89
2022/05/06 08:52:47;;;;;;;67.78;26.15;;;;;;;;;;5115081;28;20027;-90
2022/05/06 08:55:12;;;;;;;70.07;27.27;;;;;;;;;;5113185;28;20026;-89
2022/05/06 08:57:37;;;;;;;69.03;25.25;;;;;;;;;;5113353;28;20020;-89
2022/05/06 09:00:04;;;;;;;54.85;20.98;;;;;;;;;;5114270;28;20008;-89
2022/05/06 09:02:29;;;;;;;63.72;24.58;;;;;;;;;;5113076;28;20030;-89
2022/05/06 09:04:54;;;;;;;62.40;25.65;;;;;;;;;;5114419;28;20456;-89
2022/05/06 09:07:21;;;;;;;62.00;25.48;;;;;;;;;;5113122;28;20080;-89
2022/05/06 09:10:05;;;;;;;56.10;23.95;;;;;;;;;;5113079;28;20073;-89
2022/05/06 09:12:42;;;;;;;67.78;26.73;;;;;;;;;;5113115;28;20019;-89
2022/05/06 09:17:52;;;;;;;62.78;25.20;;;;;;;;;;5114481;28;20026;-89
2022/05/06 09:20:19;;;;;;;64.72;26.88;;;;;;;;;;5114233;28;20016;-90
2022/05/06 09:22:44;;;;;;;61.30;24.27;;;;;;;;;;5113134;28;20083;-90
2022/05/06 09:25:09;;;;;;;68.05;26.23;;;;;;;;;;5114016;28;20019;-90
2022/05/06 09:27:34;;;;;;;67.93;28.40;;;;;;;;;;5114131;28;20378;-90
2022/05/06 09:30:06;;;;;;;63.10;25.30;;;;;;;;;;5112768;28;20038;-90
2022/05/06 09:32:31;;;;;;;62.63;25.97;;;;;;;;;;5113011;28;20458;-89
2022/05/06 09:34:57;;;;;;;68.05;27.40;;;;;;;;;;5112696;28;20272;-89
2022/05/06 09:37:29;;;;;;;65.88;28.55;;;;;;;;;;5112783;28;20015;-89
2022/05/06 09:39:54;;;;;;;;;;;;;;;;;;5114422;28;20094;-90
2022/05/06 09:42:24;;;;;;;68.05;26.13;;;;;;;;;;5112928;28;19984;-90
2022/05/06 09:44:49;;;;;;;69.10;28.30;;;;;;;;;;5112887;28;20261;-89
2022/05/06 09:47:15;;;;;;;75.90;28.92;;;;;;;;;;5112581;28;20019;-89
2022/05/06 09:49:41;;;;;;;70.97;28.58;;;;;;;;;;5114062;28;20024;-89
2022/05/06 09:52:09;;;;;;;73.32;27.35;;;;;;;;;;5112889;28;20038;-89
2022/05/06 09:54:35;;;;;;;71.65;27.58;;;;;;;;;;5115465;28;20051;-89
2022/05/06 09:57:02;;;;;;;69.10;27.85;;;;;;;;;;5116429;28;20027;-90
2022/05/06 09:59:28;;;;;;;69.13;28.17;;;;;;;;;;5116864;28;20026;-89
2022/05/06 10:01:53;;;;;;;66.57;27.02;;;;;;;;;;5117495;28;20030;-90
2022/05/06 10:04:19;;;;;;;74.72;29.48;;;;;;;;;;5116152;28;20028;-90
2022/05/06 10:06:44;;;;;;;72.47;30.40;;;;;;;;;;5116175;28;20054;-89
2022/05/06 10:09:09;;;;;;;79.75;33.67;;;;;;;;;;5116205;28;20106;-89
2022/05/06 10:11:35;;;;;;;79.40;30.88;;;;;;;;;;5116298;28;20024;-90
2022/05/06 10:14:03;;;;;;;91.63;36.35;;;;;;;;;;5115979;28;20023;-89
2022/05/06 10:16:35;;;;;;;84.85;32.97;;;;;;;;;;5115837;28;20019;-89
2022/05/06 10:19:00;;;;;;;83.78;33.38;;;;;;;;;;5116195;28;20106;-89
2022/05/06 10:21:46;;;;;;;87.15;33.95;;;;;;;;;;5115922;28;20055;-90
2022/05/06 10:24:17;;;;;;;93.47;35.63;;;;;;;;;;5116944;28;20484;-89
2022/05/06 10:26:46;;;;;;;85.82;31.85;;;;;;;;;;5115813;28;20050;-89
2022/05/06 10:32:38;;;;;;;86.38;31.55;;;;;;;;;;5116905;28;20035;-89
2022/05/06 10:35:01;;;;;;;81.63;32.88;;;;;;;;;;5114537;28;20545;-89
2022/05/06 10:37:35;;;;;;;88.70;35.70;;;;;;;;;;5116745;28;20020;-89
2022/05/06 10:40:20;;;;;;;87.88;34.10;;;;;;;;;;5116591;27;20374;-89
2022/05/06 10:42:45;;;;;;;97.20;37.45;;;;;;;;;;5115313;28;20020;-90
2022/05/06 10:45:23;;;;;;;65.63;25.48;;;;;;;;;;5116840;28;20023;-89
2022/05/06 10:47:49;;;;;;;75.22;28.60;;;;;;;;;;5115372;28;20027;-90
2022/05/06 10:50:15;;;;;;;76.53;26.45;;;;;;;;;;5115265;28;20153;-89
2022/05/06 10:52:41;;;;;;;89.53;37.05;;;;;;;;;;5115354;28;20563;-89
2022/05/06 10:55:07;;;;;;;93.75;36.60;;;;;;;;;;5115097;28;20056;-89
2022/05/06 10:57:45;;;;;;;91.30;33.50;;;;;;;;;;5115271;28;20048;-89
2022/05/06 11:00:10;;;;;;;87.93;34.03;;;;;;;;;;5115173;28;20018;-89
2022/05/06 11:02:36;;;;;;;66.68;27.55;;;;;;;;;;5115118;28;20437;-88
2022/05/06 11:05:02;;;;;;;94.25;36.17;;;;;;;;;;5114459;28;20424;-89
2022/05/06 11:07:28;;;;;;;72.28;28.25;;;;;;;;;;5114753;28;20058;-89
2022/05/06 11:09:53;;;;;;;83.45;30.85;;;;;;;;;;5114636;28;20024;-90
2022/05/06 11:12:31;;;;;;;70.53;28.52;;;;;;;;;;5115904;28;20020;-89
2022/05/06 11:14:57;;;;;;;69.35;28.10;;;;;;;;;;5114830;28;20020;-89
2022/05/06 11:17:22;;;;;;;75.40;28.40;;;;;;;;;;5115952;28;20018;-90
2022/05/06 11:19:49;;;;;;;82.75;31.73;;;;;;;;;;5114612;28;20011;-89
2022/05/06 11:22:14;;;;;;;92.88;33.60;;;;;;;;;;5114733;28;20019;-89
2022/05/06 11:24:39;;;;;;;91.25;36.63;;;;;;;;;;5114507;28;20378;-89
2022/05/06 11:27:14;;;;;;;65.88;26.17;;;;;;;;;;5114466;28;20470;-89
2022/05/06 11:29:49;;;;;;;88.60;34.35;;;;;;;;;;5115706;28;20019;-89
2022/05/06 11:32:15;;;;;;;84.72;33.25;;;;;;;;;;5114449;28;20027;-89
2022/05/06 11:34:46;;;;;;;93.35;33.42;;;;;;;;;;5114286;28;20118;-89
2022/05/06 11:37:19;;;;;;;72.75;27.73;;;;;;;;;;5114299;28;20037;-89
2022/05/06 11:39:44;;;;;;;52.65;19.50;;;;;;;;;;5114403;28;20020;-89
2022/05/06 11:42:22;;;;;;;72.68;27.65;;;;;;;;;;5114407;28;20106;-89
2022/05/06 11:47:44;;;;;;;75.88;30.95;;;;;;;;;;5115557;28;20046;-89
2022/05/06 11:50:09;;;;;;;61.80;23.90;;;;;;;;;;5114066;28;20471;-89
2022/05/06 11:52:36;;;;;;;62.53;24.50;;;;;;;;;;5113862;28;20020;-89
2022/05/06 11:55:01;;;;;;;48.50;20.23;;;;;;;;;;5115158;27;20030;-89
2022/05/06 11:57:27;;;;;;;65.22;26.33;;;;;;;;;;5114152;28;20020;-89
2022/05/06 11:59:53;;;;;;;59.53;22.58;;;;;;;;;;5113856;28;20046;-89
2022/05/06 12:02:18;;;;;;;58.67;21.58;;;;;;;;;;5113734;28;20579;-89
2022/05/06 12:04:43;;;;;;;60.63;22.55;;;;;;;;;;5113804;28;20019;-90
2022/05/06 12:07:08;;;;;;;67.47;26.83;;;;;;;;;;5114942;28;20049;-90
2022/05/06 12:09:43;;;;;;;63.63;24.88;;;;;;;;;;5113862;28;20111;-89
2022/05/06 12:12:10;;;;;;;57.75;21.75;;;;;;;;;;5113696;28;20023;-89
2022/05/06 12:14:36;;;;;;;56.72;20.30;;;;;;;;;;5113589;28;20550;-89
2022/05/06 12:17:02;;;;;;;52.45;18.38;;;;;;;;;;5114097;28;20047;-90
2022/05/06 12:19:33;;;;;;;51.28;18.23;;;;;;;;;;5114650;28;20044;-89
2022/05/06 12:22:06;;;;;;;53.80;18.70;;;;;;;;;;5113691;28;20368;-88
2022/05/06 12:24:58;;;;;;;54.22;20.42;;;;;;;;;;5114540;28;20546;-88
2022/05/06 12:27:31;;;;;;;46.78;18.23;;;;;;;;;;5110627;28;20027;-90
2022/05/06 12:29:57;;;;;;;52.45;17.95;;;;;;;;;;5113355;28;20092;-89
2022/05/06 12:32:23;;;;;;;52.25;17.50;;;;;;;;;;5113284;28;20019;-89
2022/05/06 12:35:04;;;;;;;48.58;16.90;;;;;;;;;;5113121;28;20080;-89
2022/05/06 12:37:29;;;;;;;50.75;17.15;;;;;;;;;;5113223;28;20039;-90
2022/05/06 12:39:58;;;;;;;47.97;16.08;;;;;;;;;;5114589;28;20011;-90
2022/05/06 12:42:23;;;;;;;43.30;15.25;;;;;;;;;;5113031;28;20012;-89
2022/05/06 12:44:48;;;;;;;56.75;19.23;;;;;;;;;;5113127;28;20034;-89
2022/05/06 12:49:39;;;;;;;53.80;18.08;;;;;;;;;;5113121;28;20082;-89
2022/05/06 12:50:11;;;;;;;44.70;15.20;;;;;;;;;;5114327;28;20119;-90
2022/05/06 12:52:36;;;;;;;51.90;19.33;;;;;;;;;;5114409;28;20144;-91
2022/05/06 12:55:02;;;;;;;41.97;14.88;;;;;;;;;;5113127;28;20027;-89
2022/05/06 12:57:28;;;;;;;37.75;13.90;;;;;;;;;;5113070;28;20016;-90
2022/05/06 12:59:54;;;;;;;44.35;15.77;;;;;;;;;;5113081;28;20019;-89
2022/05/06 13:02:19;;;;;;;47.67;15.02;;;;;;;;;;5113004;28;20562;-89
2022/05/06 13:04:44;;;;;;;47.22;16.00;;;;;;;;;;5112873;28;20027;-89
2022/05/06 13:07:09;;;;;;;51.03;20.23;;;;;;;;;;5114183;28;20028;-90
2022/05/06 13:09:35;;;;;;;42.30;14.60;;;;;;;;;;5113047;28;20111;-90
2022/05/06 13:12:00;;;;;;;42.00;13.95;;;;;;;;;;5114146;28;20027;-89
2022/05/06 13:14:25;;;;;;;41.95;14.35;;;;;;;;;;5112799;28;20020;-89
2022/05/06 13:16:53;;;;;;;38.20;13.63;;;;;;;;;;5114155;28;20020;-90
2022/05/06 13:19:19;;;;;;;41.85;14.80;;;;;;;;;;5112958;28;20538;-89
2022/05/06 13:21:44;;;;;;;38.72;13.45;;;;;;;;;;5114105;28;20015;-89
2022/05/06 13:24:09;;;;;;;38.47;12.65;;;;;;;;;;5112847;28;20048;-89
2022/05/06 13:26:35;;;;;;;34.78;11.57;;;;;;;;;;5112709;28;20055;-90
2022/05/06 13:29:02;;;;;;;26.65;10.25;;;;;;;;;;5116312;28;20516;-90
2022/05/06 13:31:27;;;;;;;39.78;14.88;;;;;;;;;;5116892;28;20024;-89
2022/05/06 13:33:53;;;;;;;38.67;14.15;;;;;;;;;;5118054;28;20124;-89
2022/05/06 13:36:18;;;;;;;40.10;14.07;;;;;;;;;;5116801;28;20019;-90
2022/05/06 13:38:43;;;;;;;45.95;14.30;;;;;;;;;;5117850;28;20012;-89
2022/05/06 13:41:08;;;;;;;38.70;13.75;;;;;;;;;;5117745;28;20022;-90
2022/05/06 13:43:34;;;;;;;39.53;13.75;;;;;;;;;;5117615;27;20025;-90
2022/05/06 13:45:59;;;;;;;39.70;13.93;;;;;;;;;;5116560;28;20062;-89
2022/05/06 13:48:24;;;;;;;38.78;12.35;;;;;;;;;;5116462;28;20023;-90
2022/05/06 13:50:50;;;;;;;36.03;11.35;;;;;;;;;;5116522;28;20016;-90
2022/05/06 13:53:15;;;;;;;44.72;14.32;;;;;;;;;;5116521;28;20401;-90
2022/05/06 14:01:08;;;;;;;33.45;12.25;;;;;;;;;;5117731;28;20023;-89
2022/05/06 14:03:33;;;;;;;32.58;11.30;;;;;;;;;;5116267;28;20016;-90
2022/05/06 14:05:58;;;;;;;36.90;12.75;;;;;;;;;;5116344;28;20020;-90
2022/05/06 14:08:24;;;;;;;32.03;10.55;;;;;;;;;;5116116;28;20079;-90
2022/05/06 14:10:50;;;;;;;36.67;13.10;;;;;;;;;;5117172;28;20523;-89
2022/05/06 14:13:15;;;;;;;37.50;12.18;;;;;;;;;;5117163;28;20019;-89
2022/05/06 14:15:40;;;;;;;33.78;12.30;;;;;;;;;;5116995;28;20473;-90
2022/05/06 14:18:05;;;;;;;36.97;11.95;;;;;;;;;;5116007;28;20379;-90
2022/05/06 14:20:31;;;;;;;32.08;12.00;;;;;;;;;;5115926;28;20011;-89
2022/05/06 14:22:56;;;;;;;32.85;12.40;;;;;;;;;;5115695;28;20008;-89
2022/05/06 14:25:21;;;;;;;30.13;11.63;;;;;;;;;;5115933;28;20080;-90
2022/05/06 14:27:46;;;;;;;29.95;9.23;;;;;;;;;;5115875;28;20462;-90
2022/05/06 14:30:12;;;;;;;31.27;10.13;;;;;;;;;;5115802;28;20061;-90
2022/05/06 14:32:37;;;;;;;35.17;10.98;;;;;;;;;;5115568;28;20016;-89
2022/05/06 14:35:19;;;;;;;38.42;11.50;;;;;;;;;;5115429;28;20049;-89
2022/05/06 14:37:50;;;;;;;27.88;9.85;;;;;;;;;;5115733;28;20102;-90
2022/05/06 14:40:17;;;;;;;31.17;11.82;;;;;;;;;;5114855;28;20031;-90
2022/05/06 14:42:42;;;;;;;29.90;11.32;;;;;;;;;;5115380;28;20429;-90
2022/05/06 14:45:08;;;;;;;35.20;9.77;;;;;;;;;;5116580;28;20016;-90
2022/05/06 14:47:33;;;;;;;30.40;10.98;;;;;;;;;;5116711;28;20024;-90
2022/05/06 14:49:59;;;;;;;30.55;10.25;;;;;;;;;;5116337;28;20088;-90
2022/05/06 14:52:24;;;;;;;25.70;9.38;;;;;;;;;;5115518;28;20030;-90
2022/05/06 14:54:56;;;;;;;23.67;8.18;;;;;;;;;;5116427;28;20026;-90
2022/05/06 14:57:21;;;;;;;;;;;;;;;;;;5116683;28;20012;-90
2022/05/06 14:59:46;;;;;;;27.55;9.18;;;;;;;;;;5115267;28;19910;-90
2022/05/06 15:02:11;;;;;;;26.88;9.10;;;;;;;;;;5115219;28;20030;-90